sensor_id;sensor_type;location;lat;lon;timestamp;P1;durP1;ratioP1;P2;durP2;ratioP2
68593;SDS011;55563;52.416;13.548;2023-07-09T00:03:04;3.15;;;2.42;;
68593;SDS011;55563;52.416;13.548;2023-07-09T00:07:08;3.55;;;2.53;;
68593;SDS011;55563;52.416;13.548;2023-07-09T00:09:18;4.00;;;2.50;;
68593;SDS011;55563;52.416;13.548;2023-07-09T00:11:20;4.82;;;3.00;;
68593;SDS011;55563;52.416;13.548;2023-07-09T00:13:23;3.38;;;2.58;;
68593;SDS011;55563;52.416;13.548;2023-07-09T00:15:36;4.07;;;2.60;;
68593;SDS011;55563;52.416;13.548;2023-07-09T00:17:47;4.10;;;2.28;;
68593;SDS011;55563;52.416;13.548;2023-07-09T00:22:09;3.25;;;2.30;;
68593;SDS011;55563;52.416;13.548;2023-07-09T00:24:59;3.03;;;2.30;;
68593;SDS011;55563;52.416;13.548;2023-07-09T00:27:45;4.13;;;2.60;;
68593;SDS011;55563;52.416;13.548;2023-07-09T00:30:56;2.65;;;2.20;;
68593;SDS011;55563;52.416;13.548;2023-07-09T00:34:08;4.13;;;2.42;;
68593;SDS011;55563;52.416;13.548;2023-07-09T00:37:41;3.42;;;2.25;;
68593;SDS011;55563;52.416;13.548;2023-07-09T00:41:05;3.53;;;2.00;;
68593;SDS011;55563;52.416;13.548;2023-07-09T00:47:43;2.30;;;1.90;;
68593;SDS011;55563;52.416;13.548;2023-07-09T00:50:03;3.72;;;2.28;;
68593;SDS011;55563;52.416;13.548;2023-07-09T00:55:27;2.15;;;1.92;;
68593;SDS011;55563;52.416;13.548;2023-07-09T00:57:37;2.90;;;1.80;;
68593;SDS011;55563;52.416;13.548;2023-07-09T00:59:45;2.65;;;1.85;;
68593;SDS011;55563;52.416;13.548;2023-07-09T01:01:51;2.20;;;1.70;;
68593;SDS011;55563;52.416;13.548;2023-07-09T01:03:56;2.05;;;1.85;;
68593;SDS011;55563;52.416;13.548;2023-07-09T01:06:01;2.25;;;1.70;;
68593;SDS011;55563;52.416;13.548;2023-07-09T01:08:06;2.33;;;1.60;;
68593;SDS011;55563;52.416;13.548;2023-07-09T01:10:10;2.10;;;1.80;;
68593;SDS011;55563;52.416;13.548;2023-07-09T01:12:17;2.85;;;1.85;;
68593;SDS011;55563;52.416;13.548;2023-07-09T01:14:21;2.28;;;1.85;;
68593;SDS011;55563;52.416;13.548;2023-07-09T01:16:27;2.45;;;1.85;;
68593;SDS011;55563;52.416;13.548;2023-07-09T01:18:31;2.80;;;1.75;;
68593;SDS011;55563;52.416;13.548;2023-07-09T01:20:32;2.58;;;1.65;;
68593;SDS011;55563;52.416;13.548;2023-07-09T01:24:59;2.10;;;1.73;;
68593;SDS011;55563;52.416;13.548;2023-07-09T01:27:04;3.67;;;1.90;;
68593;SDS011;55563;52.416;13.548;2023-07-09T01:29:05;2.45;;;1.73;;
68593;SDS011;55563;52.416;13.548;2023-07-09T01:33:07;2.45;;;1.80;;
68593;SDS011;55563;52.416;13.548;2023-07-09T01:35:10;2.17;;;1.90;;
68593;SDS011;55563;52.416;13.548;2023-07-09T01:37:12;3.15;;;2.13;;
68593;SDS011;55563;52.416;13.548;2023-07-09T01:41:13;4.40;;;1.92;;
68593;SDS011;55563;52.416;13.548;2023-07-09T01:43:14;2.83;;;1.60;;
68593;SDS011;55563;52.416;13.548;2023-07-09T01:45:15;3.67;;;2.03;;
68593;SDS011;55563;52.416;13.548;2023-07-09T01:47:17;2.28;;;1.70;;
68593;SDS011;55563;52.416;13.548;2023-07-09T01:49:18;2.20;;;2.00;;
68593;SDS011;55563;52.416;13.548;2023-07-09T01:51:27;1.80;;;1.70;;
68593;SDS011;55563;52.416;13.548;2023-07-09T01:53:39;3.15;;;1.80;;
68593;SDS011;55563;52.416;13.548;2023-07-09T01:55:43;3.15;;;2.15;;
68593;SDS011;55563;52.416;13.548;2023-07-09T01:57:50;2.15;;;1.80;;
68593;SDS011;55563;52.416;13.548;2023-07-09T01:59:56;2.88;;;1.92;;
68593;SDS011;55563;52.416;13.548;2023-07-09T02:02:25;2.72;;;2.50;;
68593;SDS011;55563;52.416;13.548;2023-07-09T02:04:26;2.80;;;2.60;;
68593;SDS011;55563;52.416;13.548;2023-07-09T02:08:32;2.83;;;2.63;;
68593;SDS011;55563;52.416;13.548;2023-07-09T02:12:33;2.50;;;2.00;;
68593;SDS011;55563;52.416;13.548;2023-07-09T02:14:34;2.92;;;2.63;;
68593;SDS011;55563;52.416;13.548;2023-07-09T02:16:36;5.05;;;2.65;;
68593;SDS011;55563;52.416;13.548;2023-07-09T02:20:37;2.85;;;2.55;;
68593;SDS011;55563;52.416;13.548;2023-07-09T02:22:38;3.03;;;2.70;;
68593;SDS011;55563;52.416;13.548;2023-07-09T02:24:39;3.10;;;2.75;;
68593;SDS011;55563;52.416;13.548;2023-07-09T02:28:41;2.35;;;2.15;;
68593;SDS011;55563;52.416;13.548;2023-07-09T02:32:42;2.85;;;2.53;;
68593;SDS011;55563;52.416;13.548;2023-07-09T02:36:44;3.08;;;2.83;;
68593;SDS011;55563;52.416;13.548;2023-07-09T02:38:45;2.60;;;2.40;;
68593;SDS011;55563;52.416;13.548;2023-07-09T02:40:45;3.28;;;2.70;;
68593;SDS011;55563;52.416;13.548;2023-07-09T02:42:46;3.58;;;2.70;;
68593;SDS011;55563;52.416;13.548;2023-07-09T02:44:50;2.95;;;2.65;;
68593;SDS011;55563;52.416;13.548;2023-07-09T02:46:52;2.00;;;1.80;;
68593;SDS011;55563;52.416;13.548;2023-07-09T02:51:12;3.38;;;3.08;;
68593;SDS011;55563;52.416;13.548;2023-07-09T02:53:13;3.28;;;2.92;;
68593;SDS011;55563;52.416;13.548;2023-07-09T02:55:13;3.35;;;3.05;;
68593;SDS011;55563;52.416;13.548;2023-07-09T02:57:15;3.28;;;2.97;;
68593;SDS011;55563;52.416;13.548;2023-07-09T02:59:16;3.08;;;2.78;;
68593;SDS011;55563;52.416;13.548;2023-07-09T03:01:17;2.47;;;2.17;;
68593;SDS011;55563;52.416;13.548;2023-07-09T03:03:19;2.85;;;2.65;;
68593;SDS011;55563;52.416;13.548;2023-07-09T03:05:20;4.35;;;2.90;;
68593;SDS011;55563;52.416;13.548;2023-07-09T03:07:21;4.85;;;2.80;;
68593;SDS011;55563;52.416;13.548;2023-07-09T03:09:21;3.17;;;2.80;;
68593;SDS011;55563;52.416;13.548;2023-07-09T03:11:22;2.95;;;2.58;;
68593;SDS011;55563;52.416;13.548;2023-07-09T03:13:23;3.80;;;3.50;;
68593;SDS011;55563;52.416;13.548;2023-07-09T03:15:24;4.72;;;3.00;;
68593;SDS011;55563;52.416;13.548;2023-07-09T03:17:24;4.30;;;2.80;;
68593;SDS011;55563;52.416;13.548;2023-07-09T03:19:25;3.58;;;2.80;;
68593;SDS011;55563;52.416;13.548;2023-07-09T03:21:26;2.88;;;2.50;;
68593;SDS011;55563;52.416;13.548;2023-07-09T03:23:28;3.17;;;2.60;;
68593;SDS011;55563;52.416;13.548;2023-07-09T03:25:28;3.13;;;2.83;;
68593;SDS011;55563;52.416;13.548;2023-07-09T03:27:29;2.72;;;2.53;;
68593;SDS011;55563;52.416;13.548;2023-07-09T03:29:30;2.75;;;2.45;;
68593;SDS011;55563;52.416;13.548;2023-07-09T03:31:30;3.20;;;2.83;;
68593;SDS011;55563;52.416;13.548;2023-07-09T03:33:35;3.17;;;2.88;;
68593;SDS011;55563;52.416;13.548;2023-07-09T03:37:38;2.83;;;2.55;;
68593;SDS011;55563;52.416;13.548;2023-07-09T03:39:39;3.20;;;2.58;;
68593;SDS011;55563;52.416;13.548;2023-07-09T03:41:39;3.22;;;2.92;;
68593;SDS011;55563;52.416;13.548;2023-07-09T03:43:40;6.22;;;3.05;;
68593;SDS011;55563;52.416;13.548;2023-07-09T03:45:41;3.92;;;2.80;;
68593;SDS011;55563;52.416;13.548;2023-07-09T03:47:44;3.15;;;2.75;;
68593;SDS011;55563;52.416;13.548;2023-07-09T03:49:45;3.25;;;2.95;;
68593;SDS011;55563;52.416;13.548;2023-07-09T03:53:46;3.63;;;2.92;;
68593;SDS011;55563;52.416;13.548;2023-07-09T03:55:51;5.75;;;3.15;;
68593;SDS011;55563;52.416;13.548;2023-07-09T03:57:54;3.72;;;3.15;;
68593;SDS011;55563;52.416;13.548;2023-07-09T03:59:55;3.35;;;3.05;;
68593;SDS011;55563;52.416;13.548;2023-07-09T04:03:56;3.30;;;3.00;;
68593;SDS011;55563;52.416;13.548;2023-07-09T04:05:57;4.00;;;3.33;;
68593;SDS011;55563;52.416;13.548;2023-07-09T04:07:58;4.15;;;3.17;;
68593;SDS011;55563;52.416;13.548;2023-07-09T04:09:59;3.17;;;2.92;;
68593;SDS011;55563;52.416;13.548;2023-07-09T04:11:59;3.75;;;3.33;;
68593;SDS011;55563;52.416;13.548;2023-07-09T04:14:01;3.53;;;3.22;;
68593;SDS011;55563;52.416;13.548;2023-07-09T04:18:03;3.85;;;3.38;;
68593;SDS011;55563;52.416;13.548;2023-07-09T04:20:03;3.92;;;3.35;;
68593;SDS011;55563;52.416;13.548;2023-07-09T04:22:06;3.67;;;2.70;;
68593;SDS011;55563;52.416;13.548;2023-07-09T04:26:08;3.72;;;3.22;;
68593;SDS011;55563;52.416;13.548;2023-07-09T04:28:13;3.53;;;2.95;;
68593;SDS011;55563;52.416;13.548;2023-07-09T04:30:15;3.28;;;2.97;;
68593;SDS011;55563;52.416;13.548;2023-07-09T04:34:16;4.82;;;3.80;;
68593;SDS011;55563;52.416;13.548;2023-07-09T04:38:17;3.17;;;2.88;;
68593;SDS011;55563;52.416;13.548;2023-07-09T04:42:19;3.45;;;3.15;;
68593;SDS011;55563;52.416;13.548;2023-07-09T04:46:20;3.35;;;3.05;;
68593;SDS011;55563;52.416;13.548;2023-07-09T04:50:21;3.35;;;3.05;;
68593;SDS011;55563;52.416;13.548;2023-07-09T04:52:22;3.97;;;2.78;;
68593;SDS011;55563;52.416;13.548;2023-07-09T04:56:23;4.60;;;3.15;;
68593;SDS011;55563;52.416;13.548;2023-07-09T05:00:25;3.53;;;3.22;;
68593;SDS011;55563;52.416;13.548;2023-07-09T05:04:26;2.92;;;2.70;;
68593;SDS011;55563;52.416;13.548;2023-07-09T05:08:32;3.05;;;2.75;;
68593;SDS011;55563;52.416;13.548;2023-07-09T05:12:33;3.30;;;3.00;;
68593;SDS011;55563;52.416;13.548;2023-07-09T05:16:35;3.28;;;2.75;;
68593;SDS011;55563;52.416;13.548;2023-07-09T05:18:36;3.10;;;2.75;;
68593;SDS011;55563;52.416;13.548;2023-07-09T05:20:37;3.20;;;2.90;;
68593;SDS011;55563;52.416;13.548;2023-07-09T05:22:38;3.38;;;2.92;;
68593;SDS011;55563;52.416;13.548;2023-07-09T05:24:39;2.78;;;2.33;;
68593;SDS011;55563;52.416;13.548;2023-07-09T05:28:40;3.47;;;3.17;;
68593;SDS011;55563;52.416;13.548;2023-07-09T05:30:41;4.20;;;2.70;;
68593;SDS011;55563;52.416;13.548;2023-07-09T05:32:42;3.33;;;3.03;;
68593;SDS011;55563;52.416;13.548;2023-07-09T05:34:43;2.75;;;2.40;;
68593;SDS011;55563;52.416;13.548;2023-07-09T05:38:45;3.42;;;3.13;;
68593;SDS011;55563;52.416;13.548;2023-07-09T05:40:47;3.13;;;2.60;;
68593;SDS011;55563;52.416;13.548;2023-07-09T05:42:48;3.10;;;2.90;;
68593;SDS011;55563;52.416;13.548;2023-07-09T05:44:50;3.17;;;2.88;;
68593;SDS011;55563;52.416;13.548;2023-07-09T05:46:51;3.08;;;2.83;;
68593;SDS011;55563;52.416;13.548;2023-07-09T05:48:52;2.95;;;2.65;;
68593;SDS011;55563;52.416;13.548;2023-07-09T05:50:53;3.05;;;2.22;;
68593;SDS011;55563;52.416;13.548;2023-07-09T05:52:55;3.13;;;2.83;;
68593;SDS011;55563;52.416;13.548;2023-07-09T05:54:55;2.50;;;1.95;;
68593;SDS011;55563;52.416;13.548;2023-07-09T05:58:57;3.85;;;2.97;;
68593;SDS011;55563;52.416;13.548;2023-07-09T06:00:58;3.00;;;2.70;;
68593;SDS011;55563;52.416;13.548;2023-07-09T06:02:58;3.30;;;3.00;;
68593;SDS011;55563;52.416;13.548;2023-07-09T06:04:59;2.97;;;2.67;;
68593;SDS011;55563;52.416;13.548;2023-07-09T06:07:00;3.13;;;2.83;;
68593;SDS011;55563;52.416;13.548;2023-07-09T06:09:01;3.17;;;2.80;;
68593;SDS011;55563;52.416;13.548;2023-07-09T06:11:02;3.30;;;3.00;;
68593;SDS011;55563;52.416;13.548;2023-07-09T06:13:03;3.08;;;2.83;;
68593;SDS011;55563;52.416;13.548;2023-07-09T06:15:04;3.92;;;3.22;;
68593;SDS011;55563;52.416;13.548;2023-07-09T06:17:06;3.63;;;3.05;;
68593;SDS011;55563;52.416;13.548;2023-07-09T06:19:07;3.28;;;2.97;;
68593;SDS011;55563;52.416;13.548;2023-07-09T06:21:08;2.30;;;2.10;;
68593;SDS011;55563;52.416;13.548;2023-07-09T06:23:11;3.40;;;3.03;;
68593;SDS011;55563;52.416;13.548;2023-07-09T06:25:12;3.28;;;2.97;;
68593;SDS011;55563;52.416;13.548;2023-07-09T06:27:13;3.22;;;2.92;;
68593;SDS011;55563;52.416;13.548;2023-07-09T06:29:13;3.25;;;2.80;;
68593;SDS011;55563;52.416;13.548;2023-07-09T06:31:14;3.22;;;3.00;;
68593;SDS011;55563;52.416;13.548;2023-07-09T06:33:15;4.07;;;3.13;;
68593;SDS011;55563;52.416;13.548;2023-07-09T06:35:18;4.00;;;3.17;;
68593;SDS011;55563;52.416;13.548;2023-07-09T06:37:19;3.40;;;2.92;;
68593;SDS011;55563;52.416;13.548;2023-07-09T06:39:19;3.40;;;2.78;;
68593;SDS011;55563;52.416;13.548;2023-07-09T06:41:20;4.40;;;3.13;;
68593;SDS011;55563;52.416;13.548;2023-07-09T06:43:21;3.85;;;2.78;;
68593;SDS011;55563;52.416;13.548;2023-07-09T06:45:23;2.75;;;2.53;;
68593;SDS011;55563;52.416;13.548;2023-07-09T06:47:24;3.55;;;2.80;;
68593;SDS011;55563;52.416;13.548;2023-07-09T06:49:25;3.53;;;3.22;;
68593;SDS011;55563;52.416;13.548;2023-07-09T06:51:25;3.95;;;3.28;;
68593;SDS011;55563;52.416;13.548;2023-07-09T06:53:26;3.53;;;2.88;;
68593;SDS011;55563;52.416;13.548;2023-07-09T06:55:28;3.13;;;2.92;;
68593;SDS011;55563;52.416;13.548;2023-07-09T06:57:29;3.03;;;2.70;;
68593;SDS011;55563;52.416;13.548;2023-07-09T06:59:30;3.35;;;3.05;;
68593;SDS011;55563;52.416;13.548;2023-07-09T07:01:30;3.80;;;3.50;;
68593;SDS011;55563;52.416;13.548;2023-07-09T07:03:32;2.90;;;2.60;;
68593;SDS011;55563;52.416;13.548;2023-07-09T07:05:33;3.30;;;3.00;;
68593;SDS011;55563;52.416;13.548;2023-07-09T07:07:34;3.17;;;2.88;;
68593;SDS011;55563;52.416;13.548;2023-07-09T07:09:35;3.05;;;2.83;;
68593;SDS011;55563;52.416;13.548;2023-07-09T07:11:35;3.78;;;3.33;;
68593;SDS011;55563;52.416;13.548;2023-07-09T07:13:38;3.40;;;3.13;;
68593;SDS011;55563;52.416;13.548;2023-07-09T07:15:39;3.50;;;3.20;;
68593;SDS011;55563;52.416;13.548;2023-07-09T07:17:40;3.47;;;3.17;;
68593;SDS011;55563;52.416;13.548;2023-07-09T07:19:41;3.55;;;3.20;;
68593;SDS011;55563;52.416;13.548;2023-07-09T07:21:42;3.22;;;2.95;;
68593;SDS011;55563;52.416;13.548;2023-07-09T07:23:42;3.63;;;3.28;;
68593;SDS011;55563;52.416;13.548;2023-07-09T07:25:45;2.92;;;2.30;;
68593;SDS011;55563;52.416;13.548;2023-07-09T07:27:46;3.78;;;3.20;;
68593;SDS011;55563;52.416;13.548;2023-07-09T07:29:47;3.38;;;3.08;;
68593;SDS011;55563;52.416;13.548;2023-07-09T07:31:47;4.53;;;2.95;;
68593;SDS011;55563;52.416;13.548;2023-07-09T07:33:48;3.35;;;3.05;;
68593;SDS011;55563;52.416;13.548;2023-07-09T07:35:49;3.90;;;3.50;;
68593;SDS011;55563;52.416;13.548;2023-07-09T07:37:49;3.40;;;3.03;;
68593;SDS011;55563;52.416;13.548;2023-07-09T07:39:50;3.50;;;3.20;;
68593;SDS011;55563;52.416;13.548;2023-07-09T07:41:51;3.38;;;3.08;;
68593;SDS011;55563;52.416;13.548;2023-07-09T07:43:51;3.80;;;3.50;;
68593;SDS011;55563;52.416;13.548;2023-07-09T07:45:52;3.60;;;2.90;;
68593;SDS011;55563;52.416;13.548;2023-07-09T07:47:53;3.08;;;2.83;;
68593;SDS011;55563;52.416;13.548;2023-07-09T07:49:53;3.20;;;2.90;;
68593;SDS011;55563;52.416;13.548;2023-07-09T07:51:54;3.15;;;2.88;;
68593;SDS011;55563;52.416;13.548;2023-07-09T07:53:56;3.35;;;3.05;;
68593;SDS011;55563;52.416;13.548;2023-07-09T07:55:56;2.95;;;2.75;;
68593;SDS011;55563;52.416;13.548;2023-07-09T07:57:58;4.03;;;3.63;;
68593;SDS011;55563;52.416;13.548;2023-07-09T08:00:00;3.58;;;3.28;;
68593;SDS011;55563;52.416;13.548;2023-07-09T08:02:01;5.03;;;3.33;;
68593;SDS011;55563;52.416;13.548;2023-07-09T08:04:03;3.35;;;3.05;;
68593;SDS011;55563;52.416;13.548;2023-07-09T08:06:04;3.42;;;3.13;;
68593;SDS011;55563;52.416;13.548;2023-07-09T08:08:05;3.17;;;2.88;;
68593;SDS011;55563;52.416;13.548;2023-07-09T08:10:06;4.13;;;2.30;;
68593;SDS011;55563;52.416;13.548;2023-07-09T08:12:07;2.88;;;2.58;;
68593;SDS011;55563;52.416;13.548;2023-07-09T08:14:11;4.05;;;3.65;;
68593;SDS011;55563;52.416;13.548;2023-07-09T08:16:12;3.35;;;2.30;;
68593;SDS011;55563;52.416;13.548;2023-07-09T08:18:13;3.90;;;3.50;;
68593;SDS011;55563;52.416;13.548;2023-07-09T08:20:14;3.30;;;3.00;;
68593;SDS011;55563;52.416;13.548;2023-07-09T08:22:15;4.28;;;3.28;;
68593;SDS011;55563;52.416;13.548;2023-07-09T08:24:16;4.03;;;3.67;;
68593;SDS011;55563;52.416;13.548;2023-07-09T08:26:17;3.47;;;3.17;;
68593;SDS011;55563;52.416;13.548;2023-07-09T08:28:17;2.70;;;2.10;;
68593;SDS011;55563;52.416;13.548;2023-07-09T08:30:18;4.72;;;3.22;;
68593;SDS011;55563;52.416;13.548;2023-07-09T08:32:19;4.05;;;3.05;;
68593;SDS011;55563;52.416;13.548;2023-07-09T08:34:19;4.13;;;3.15;;
68593;SDS011;55563;52.416;13.548;2023-07-09T08:36:20;4.05;;;3.65;;
68593;SDS011;55563;52.416;13.548;2023-07-09T08:38:21;3.50;;;3.20;;
68593;SDS011;55563;52.416;13.548;2023-07-09T08:40:22;3.88;;;3.58;;
68593;SDS011;55563;52.416;13.548;2023-07-09T08:42:40;3.72;;;3.42;;
68593;SDS011;55563;52.416;13.548;2023-07-09T08:47:19;4.10;;;3.72;;
68593;SDS011;55563;52.416;13.548;2023-07-09T08:49:49;3.35;;;3.05;;
68593;SDS011;55563;52.416;13.548;2023-07-09T08:51:56;3.70;;;3.40;;
68593;SDS011;55563;52.416;13.548;2023-07-09T08:53:58;5.50;;;3.67;;
68593;SDS011;55563;52.416;13.548;2023-07-09T08:56:00;4.00;;;3.60;;
68593;SDS011;55563;52.416;13.548;2023-07-09T08:58:03;3.75;;;3.45;;
68593;SDS011;55563;52.416;13.548;2023-07-09T09:00:43;3.60;;;3.30;;
68593;SDS011;55563;52.416;13.548;2023-07-09T09:02:33;3.63;;;3.33;;
68593;SDS011;55563;52.416;13.548;2023-07-09T09:04:37;2.65;;;2.40;;
68593;SDS011;55563;52.416;13.548;2023-07-09T09:06:39;3.70;;;3.28;;
68593;SDS011;55563;52.416;13.548;2023-07-09T09:08:50;3.42;;;3.13;;
68593;SDS011;55563;52.416;13.548;2023-07-09T09:11:15;3.67;;;2.92;;
68593;SDS011;55563;52.416;13.548;2023-07-09T09:13:35;3.17;;;2.88;;
68593;SDS011;55563;52.416;13.548;2023-07-09T09:15:39;3.20;;;2.90;;
68593;SDS011;55563;52.416;13.548;2023-07-09T09:17:43;3.00;;;2.70;;
68593;SDS011;55563;52.416;13.548;2023-07-09T09:19:48;3.08;;;2.83;;
68593;SDS011;55563;52.416;13.548;2023-07-09T09:21:59;2.72;;;2.45;;
68593;SDS011;55563;52.416;13.548;2023-07-09T09:24:12;3.08;;;2.88;;
68593;SDS011;55563;52.416;13.548;2023-07-09T09:28:21;3.50;;;2.90;;
68593;SDS011;55563;52.416;13.548;2023-07-09T09:30:25;2.53;;;2.25;;
68593;SDS011;55563;52.416;13.548;2023-07-09T09:32:26;3.30;;;3.00;;
68593;SDS011;55563;52.416;13.548;2023-07-09T09:34:29;3.25;;;3.03;;
68593;SDS011;55563;52.416;13.548;2023-07-09T09:36:30;3.42;;;2.97;;
68593;SDS011;55563;52.416;13.548;2023-07-09T09:38:31;3.38;;;3.08;;
68593;SDS011;55563;52.416;13.548;2023-07-09T09:40:36;2.10;;;1.90;;
68593;SDS011;55563;52.416;13.548;2023-07-09T09:42:37;3.25;;;2.95;;
68593;SDS011;55563;52.416;13.548;2023-07-09T09:44:42;3.03;;;2.83;;
68593;SDS011;55563;52.416;13.548;2023-07-09T09:46:44;4.65;;;2.67;;
68593;SDS011;55563;52.416;13.548;2023-07-09T09:48:46;2.78;;;2.58;;
68593;SDS011;55563;52.416;13.548;2023-07-09T09:50:48;2.97;;;2.67;;
68593;SDS011;55563;52.416;13.548;2023-07-09T09:52:51;2.97;;;2.70;;
68593;SDS011;55563;52.416;13.548;2023-07-09T09:54:56;3.17;;;2.88;;
68593;SDS011;55563;52.416;13.548;2023-07-09T09:57:03;2.70;;;2.50;;
68593;SDS011;55563;52.416;13.548;2023-07-09T09:59:05;3.03;;;2.78;;
68593;SDS011;55563;52.416;13.548;2023-07-09T10:01:11;3.00;;;2.65;;
68593;SDS011;55563;52.416;13.548;2023-07-09T10:03:16;2.83;;;2.63;;
68593;SDS011;55563;52.416;13.548;2023-07-09T10:05:16;2.83;;;2.63;;
68593;SDS011;55563;52.416;13.548;2023-07-09T10:07:39;3.10;;;2.85;;
68593;SDS011;55563;52.416;13.548;2023-07-09T10:09:49;3.00;;;2.78;;
68593;SDS011;55563;52.416;13.548;2023-07-09T10:11:55;3.15;;;2.95;;
68593;SDS011;55563;52.416;13.548;2023-07-09T10:14:04;3.00;;;2.70;;
68593;SDS011;55563;52.416;13.548;2023-07-09T10:16:29;3.83;;;3.53;;
68593;SDS011;55563;52.416;13.548;2023-07-09T10:25:35;2.72;;;2.20;;
68593;SDS011;55563;52.416;13.548;2023-07-09T10:27:58;2.88;;;2.10;;
68593;SDS011;55563;52.416;13.548;2023-07-09T10:30:16;3.10;;;2.30;;
68593;SDS011;55563;52.416;13.548;2023-07-09T10:33:02;2.35;;;2.15;;
68593;SDS011;55563;52.416;13.548;2023-07-09T10:34:52;2.50;;;2.22;;
68593;SDS011;55563;52.416;13.548;2023-07-09T10:39:37;2.50;;;2.30;;
68593;SDS011;55563;52.416;13.548;2023-07-09T10:41:43;3.45;;;2.10;;
68593;SDS011;55563;52.416;13.548;2023-07-09T10:43:50;4.05;;;2.17;;
68593;SDS011;55563;52.416;13.548;2023-07-09T10:45:57;2.17;;;1.92;;
68593;SDS011;55563;52.416;13.548;2023-07-09T10:48:07;2.40;;;2.08;;
68593;SDS011;55563;52.416;13.548;2023-07-09T10:50:21;2.88;;;2.00;;
68593;SDS011;55563;52.416;13.548;2023-07-09T10:52:36;2.60;;;2.33;;
68593;SDS011;55563;52.416;13.548;2023-07-09T10:54:45;2.78;;;2.10;;
68593;SDS011;55563;52.416;13.548;2023-07-09T10:57:13;2.80;;;2.03;;
68593;SDS011;55563;52.416;13.548;2023-07-09T10:59:21;2.30;;;2.05;;
68593;SDS011;55563;52.416;13.548;2023-07-09T11:01:30;2.35;;;2.15;;
68593;SDS011;55563;52.416;13.548;2023-07-09T11:03:38;2.25;;;1.95;;
68593;SDS011;55563;52.416;13.548;2023-07-09T11:05:45;2.53;;;2.20;;
68593;SDS011;55563;52.416;13.548;2023-07-09T11:08:05;2.28;;;2.08;;
68593;SDS011;55563;52.416;13.548;2023-07-09T11:10:46;2.42;;;2.22;;
68593;SDS011;55563;52.416;13.548;2023-07-09T11:12:39;3.38;;;2.17;;
68593;SDS011;55563;52.416;13.548;2023-07-09T11:14:47;2.72;;;2.00;;
68593;SDS011;55563;52.416;13.548;2023-07-09T11:16:54;2.33;;;2.13;;
68593;SDS011;55563;52.416;13.548;2023-07-09T11:18:58;2.35;;;2.15;;
68593;SDS011;55563;52.416;13.548;2023-07-09T11:21:05;2.90;;;2.03;;
68593;SDS011;55563;52.416;13.548;2023-07-09T11:23:17;2.47;;;2.17;;
68593;SDS011;55563;52.416;13.548;2023-07-09T11:27:48;2.33;;;2.10;;
68593;SDS011;55563;52.416;13.548;2023-07-09T11:29:59;2.20;;;2.00;;
68593;SDS011;55563;52.416;13.548;2023-07-09T11:32:07;2.40;;;1.95;;
68593;SDS011;55563;52.416;13.548;2023-07-09T11:36:25;2.63;;;2.42;;
68593;SDS011;55563;52.416;13.548;2023-07-09T11:38:36;3.10;;;2.75;;
68593;SDS011;55563;52.416;13.548;2023-07-09T11:40:45;2.22;;;2.03;;
68593;SDS011;55563;52.416;13.548;2023-07-09T11:42:53;2.20;;;2.00;;
68593;SDS011;55563;52.416;13.548;2023-07-09T11:45:08;3.08;;;2.78;;
68593;SDS011;55563;52.416;13.548;2023-07-09T11:47:14;3.17;;;2.88;;
68593;SDS011;55563;52.416;13.548;2023-07-09T11:49:23;2.90;;;2.70;;
68593;SDS011;55563;52.416;13.548;2023-07-09T11:51:33;3.03;;;2.17;;
68593;SDS011;55563;52.416;13.548;2023-07-09T11:53:46;3.72;;;2.97;;
68593;SDS011;55563;52.416;13.548;2023-07-09T11:55:50;2.90;;;2.33;;
68593;SDS011;55563;52.416;13.548;2023-07-09T11:57:53;3.67;;;2.88;;
68593;SDS011;55563;52.416;13.548;2023-07-09T11:59:58;3.35;;;3.03;;
68593;SDS011;55563;52.416;13.548;2023-07-09T12:01:59;2.28;;;2.00;;
68593;SDS011;55563;52.416;13.548;2023-07-09T12:04:01;3.33;;;3.00;;
68593;SDS011;55563;52.416;13.548;2023-07-09T12:06:04;3.78;;;3.17;;
68593;SDS011;55563;52.416;13.548;2023-07-09T12:08:14;2.50;;;2.30;;
68593;SDS011;55563;52.416;13.548;2023-07-09T12:10:18;3.95;;;3.47;;
68593;SDS011;55563;52.416;13.548;2023-07-09T12:12:23;3.40;;;3.10;;
68593;SDS011;55563;52.416;13.548;2023-07-09T12:14:25;3.22;;;2.88;;
68593;SDS011;55563;52.416;13.548;2023-07-09T12:16:28;3.22;;;2.78;;
68593;SDS011;55563;52.416;13.548;2023-07-09T12:18:30;3.50;;;3.20;;
68593;SDS011;55563;52.416;13.548;2023-07-09T12:20:33;3.15;;;2.95;;
68593;SDS011;55563;52.416;13.548;2023-07-09T12:22:35;3.10;;;2.80;;
68593;SDS011;55563;52.416;13.548;2023-07-09T12:24:38;3.70;;;3.05;;
68593;SDS011;55563;52.416;13.548;2023-07-09T12:26:42;3.28;;;2.97;;
68593;SDS011;55563;52.416;13.548;2023-07-09T12:28:48;3.42;;;3.00;;
68593;SDS011;55563;52.416;13.548;2023-07-09T12:30:50;4.20;;;3.40;;
68593;SDS011;55563;52.416;13.548;2023-07-09T12:32:52;3.72;;;3.17;;
68593;SDS011;55563;52.416;13.548;2023-07-09T12:34:53;3.15;;;2.42;;
68593;SDS011;55563;52.416;13.548;2023-07-09T12:36:57;3.10;;;2.90;;
68593;SDS011;55563;52.416;13.548;2023-07-09T12:39:02;3.22;;;2.92;;
68593;SDS011;55563;52.416;13.548;2023-07-09T12:41:04;3.17;;;2.88;;
68593;SDS011;55563;52.416;13.548;2023-07-09T12:43:07;4.47;;;3.38;;
68593;SDS011;55563;52.416;13.548;2023-07-09T12:45:15;3.13;;;2.83;;
68593;SDS011;55563;52.416;13.548;2023-07-09T12:47:17;3.70;;;3.15;;
68593;SDS011;55563;52.416;13.548;2023-07-09T12:51:36;2.83;;;2.38;;
68593;SDS011;55563;52.416;13.548;2023-07-09T12:53:38;2.45;;;2.25;;
68593;SDS011;55563;52.416;13.548;2023-07-09T12:55:40;2.78;;;2.30;;
68593;SDS011;55563;52.416;13.548;2023-07-09T12:57:42;2.50;;;2.30;;
68593;SDS011;55563;52.416;13.548;2023-07-09T12:59:44;3.75;;;2.40;;
68593;SDS011;55563;52.416;13.548;2023-07-09T13:01:48;2.53;;;2.28;;
68593;SDS011;55563;52.416;13.548;2023-07-09T13:03:52;3.00;;;2.35;;
68593;SDS011;55563;52.416;13.548;2023-07-09T13:05:56;2.90;;;2.60;;
68593;SDS011;55563;52.416;13.548;2023-07-09T13:08:00;3.08;;;2.42;;
68593;SDS011;55563;52.416;13.548;2023-07-09T13:10:04;2.53;;;2.33;;
68593;SDS011;55563;52.416;13.548;2023-07-09T13:12:14;2.70;;;2.47;;
68593;SDS011;55563;52.416;13.548;2023-07-09T13:14:19;2.58;;;2.38;;
68593;SDS011;55563;52.416;13.548;2023-07-09T13:16:22;2.63;;;2.20;;
68593;SDS011;55563;52.416;13.548;2023-07-09T13:18:23;3.85;;;2.35;;
68593;SDS011;55563;52.416;13.548;2023-07-09T13:20:25;2.70;;;2.47;;
68593;SDS011;55563;52.416;13.548;2023-07-09T13:22:27;3.63;;;2.40;;
68593;SDS011;55563;52.416;13.548;2023-07-09T13:24:29;3.38;;;2.20;;
68593;SDS011;55563;52.416;13.548;2023-07-09T13:26:31;3.47;;;2.40;;
68593;SDS011;55563;52.416;13.548;2023-07-09T13:28:31;2.92;;;2.45;;
68593;SDS011;55563;52.416;13.548;2023-07-09T13:30:32;2.53;;;2.33;;
68593;SDS011;55563;52.416;13.548;2023-07-09T13:32:33;3.13;;;2.15;;
68593;SDS011;55563;52.416;13.548;2023-07-09T13:34:33;2.63;;;2.30;;
68593;SDS011;55563;52.416;13.548;2023-07-09T13:36:35;2.50;;;2.03;;
68593;SDS011;55563;52.416;13.548;2023-07-09T13:38:36;3.15;;;2.60;;
68593;SDS011;55563;52.416;13.548;2023-07-09T13:40:37;2.55;;;2.35;;
68593;SDS011;55563;52.416;13.548;2023-07-09T13:42:38;2.92;;;2.40;;
68593;SDS011;55563;52.416;13.548;2023-07-09T13:44:42;3.10;;;2.72;;
68593;SDS011;55563;52.416;13.548;2023-07-09T13:46:44;2.70;;;2.45;;
68593;SDS011;55563;52.416;13.548;2023-07-09T13:48:46;3.65;;;2.33;;
68593;SDS011;55563;52.416;13.548;2023-07-09T13:50:47;2.72;;;2.50;;
68593;SDS011;55563;52.416;13.548;2023-07-09T13:52:51;2.67;;;2.47;;
68593;SDS011;55563;52.416;13.548;2023-07-09T13:54:52;2.78;;;2.58;;